createdAt,value
2023-02-02T07:31:59.514Z,25.76
2023-02-02T07:32:59.641Z,25.90
2023-02-02T07:33:59.269Z,26.01
2023-02-02T07:34:59.277Z,26.07
2023-02-02T07:35:59.150Z,26.15
2023-02-02T07:36:59.057Z,26.19
2023-02-02T07:37:59.009Z,26.28
2023-02-02T07:38:58.968Z,26.32
2023-02-02T07:39:58.913Z,26.36
2023-02-02T07:40:58.749Z,26.45
2023-02-02T07:41:58.642Z,26.48
2023-02-02T07:42:58.560Z,26.42
2023-02-02T07:45:27.599Z,26.52
2023-02-02T07:46:03.542Z,26.57
2023-02-02T07:47:41.710Z,26.42
2023-02-02T07:48:41.667Z,26.52
2023-02-02T07:50:15.977Z,26.52
2023-02-02T07:52:07.958Z,26.50
2023-02-02T07:53:07.871Z,26.55
2023-02-02T07:55:14.005Z,26.42
2023-02-02T07:56:00.974Z,26.46
2023-02-02T07:56:59.938Z,26.57
2023-02-02T08:00:20.040Z,26.52
2023-02-02T08:01:20.076Z,26.55
2023-02-02T08:02:19.948Z,26.73
2023-02-02T08:03:19.892Z,26.77
2023-02-02T08:05:22.698Z,26.60
2023-02-02T08:06:22.224Z,26.46
2023-02-02T08:07:22.281Z,26.28
2023-02-02T08:08:22.263Z,26.08
2023-02-02T08:09:22.219Z,26.01
2023-02-02T08:10:22.194Z,25.76
2023-02-02T08:11:22.185Z,26.00
2023-02-02T08:12:24.126Z,25.90
2023-02-02T08:13:22.392Z,25.77
2023-02-02T08:14:22.420Z,25.85
2023-02-02T08:15:22.523Z,25.74
2023-02-02T08:16:22.590Z,25.69
2023-02-02T08:17:22.637Z,25.61
2023-02-02T08:18:22.624Z,25.53
2023-02-02T08:19:22.660Z,25.37
2023-02-02T08:20:22.743Z,25.21
2023-02-02T08:21:22.745Z,25.21
2023-02-02T08:22:22.823Z,25.08
2023-02-02T08:23:22.847Z,24.98
2023-02-02T08:24:23.208Z,25.05
2023-02-02T08:25:23.355Z,24.99
2023-02-02T08:26:23.132Z,24.95
